createdAt,value
2022-08-22T00:01:02.099Z,5.28
2022-08-22T00:02:49.334Z,5.97
2022-08-22T00:02:49.564Z,5.90
2022-08-22T00:02:57.967Z,4.93
2022-08-22T00:03:00.126Z,4.20
2022-08-22T00:03:15.001Z,4.65
2022-08-22T00:03:23.640Z,5.22
2022-08-22T00:05:32.171Z,5.10
2022-08-22T00:07:41.237Z,5.00
2022-08-22T00:09:49.645Z,5.15
2022-08-22T00:11:59.279Z,5.32
2022-08-22T00:14:10.897Z,5.22
2022-08-22T00:16:17.445Z,5.30
2022-08-22T00:18:26.475Z,5.00
2022-08-22T00:20:34.834Z,4.78
2022-08-22T00:22:43.404Z,4.82
2022-08-22T00:24:53.371Z,4.85
2022-08-22T00:27:00.894Z,4.55
2022-08-22T00:29:06.758Z,5.05
2022-08-22T00:31:15.358Z,5.32
2022-08-22T00:33:30.894Z,4.93
2022-08-22T00:35:39.555Z,4.93
2022-08-22T00:37:52.543Z,4.88
2022-08-22T00:40:03.318Z,4.53
2022-08-22T00:42:33.646Z,4.57
2022-08-22T00:45:04.150Z,4.53
2022-08-22T00:47:19.813Z,5.28
2022-08-22T00:49:41.469Z,4.50
2022-08-22T00:52:06.619Z,4.72
2022-08-22T00:54:18.032Z,4.28
2022-08-22T00:56:49.654Z,4.80
2022-08-22T00:59:31.400Z,4.40
2022-08-22T01:01:36.080Z,4.40
2022-08-22T01:04:18.576Z,4.50
2022-08-22T01:06:28.358Z,4.22
2022-08-22T01:08:44.179Z,4.53
2022-08-22T01:11:04.371Z,4.57
2022-08-22T01:13:22.602Z,4.60
2022-08-22T01:15:30.432Z,5.57
2022-08-22T01:17:54.241Z,4.80
2022-08-22T01:20:23.948Z,5.13
2022-08-22T01:23:00.078Z,5.38
2022-08-22T01:25:50.972Z,4.75
2022-08-22T01:28:15.620Z,5.05
2022-08-22T01:30:29.873Z,5.20
2022-08-22T01:33:19.021Z,4.68
2022-08-22T01:35:50.058Z,4.85
2022-08-22T01:38:22.751Z,5.22
2022-08-22T01:41:01.719Z,4.93
2022-08-22T01:43:09.918Z,4.38
2022-08-22T01:45:41.822Z,5.15
2022-08-22T01:47:49.981Z,6.32
2022-08-22T01:50:00.151Z,5.57
2022-08-22T01:52:11.145Z,5.43
2022-08-22T01:54:24.574Z,4.85
2022-08-22T01:56:33.083Z,4.72
2022-08-22T01:58:37.509Z,4.50
2022-08-22T02:00:54.597Z,5.45
2022-08-22T02:03:07.910Z,5.60
2022-08-22T02:05:23.585Z,5.00
2022-08-22T02:07:32.084Z,5.60
2022-08-22T02:09:43.064Z,5.13
2022-08-22T02:11:50.822Z,5.25
2022-08-22T02:14:00.101Z,4.60
2022-08-22T02:16:09.616Z,4.40
2022-08-22T02:18:25.803Z,4.70
2022-08-22T02:20:32.909Z,5.00
2022-08-22T02:22:52.363Z,5.28
2022-08-22T02:25:02.603Z,4.35
2022-08-22T02:27:19.454Z,4.53
2022-08-22T02:29:31.039Z,4.65
2022-08-22T02:31:39.873Z,4.40
2022-08-22T02:33:50.185Z,4.40
2022-08-22T02:35:55.405Z,4.00
2022-08-22T02:38:12.347Z,4.13
2022-08-22T02:40:26.036Z,3.85
2022-08-22T02:42:36.818Z,4.15
2022-08-22T02:44:52.327Z,4.38
2022-08-22T02:47:00.993Z,4.00
2022-08-22T02:49:09.567Z,4.38
2022-08-22T02:51:21.341Z,4.60
2022-08-22T02:53:33.347Z,4.18
2022-08-22T02:55:46.897Z,4.43
2022-08-22T02:57:56.745Z,4.10
2022-08-22T03:00:31.527Z,4.30
2022-08-22T03:02:35.696Z,4.30
2022-08-22T03:04:50.893Z,4.20
2022-08-22T03:07:11.207Z,4.40
2022-08-22T03:11:38.897Z,4.32
2022-08-22T03:13:49.367Z,4.10
2022-08-22T03:15:56.115Z,4.13
2022-08-22T03:18:03.012Z,4.30
2022-08-22T03:20:11.515Z,4.40
2022-08-22T03:22:19.226Z,4.45
2022-08-22T03:26:29.984Z,4.50
2022-08-22T03:28:38.072Z,4.50
2022-08-22T03:30:43.438Z,4.35
2022-08-22T03:32:52.309Z,4.03
2022-08-22T03:34:57.642Z,4.07
2022-08-22T03:37:06.697Z,4.13
2022-08-22T03:39:16.655Z,4.45
2022-08-22T03:41:43.054Z,4.30
2022-08-22T03:44:17.602Z,4.07
2022-08-22T03:46:56.099Z,4.13
2022-08-22T03:49:13.475Z,3.92
2022-08-22T03:51:31.048Z,4.38
2022-08-22T03:54:05.141Z,4.00
2022-08-22T03:56:39.848Z,4.68
2022-08-22T03:59:00.916Z,4.60
2022-08-22T04:01:19.422Z,4.07
2022-08-22T04:03:47.025Z,4.43
2022-08-22T04:06:11.482Z,4.32
2022-08-22T04:08:33.891Z,8.55
2022-08-22T04:10:57.672Z,5.18
2022-08-22T04:13:44.992Z,4.47
2022-08-22T04:16:11.370Z,6.10
2022-08-22T04:18:28.803Z,4.93
2022-08-22T04:21:08.638Z,4.28
2022-08-22T04:23:44.601Z,4.63
2022-08-22T04:25:51.653Z,4.88
2022-08-22T04:28:00.640Z,4.47
2022-08-22T04:30:09.155Z,4.10
2022-08-22T04:32:18.514Z,4.35
2022-08-22T04:34:28.506Z,5.30
2022-08-22T04:36:35.361Z,4.28
2022-08-22T04:38:42.143Z,5.20
2022-08-22T04:40:48.597Z,7.25
2022-08-22T04:42:54.226Z,4.40
2022-08-22T04:45:05.623Z,4.20
2022-08-22T04:47:16.785Z,4.13
2022-08-22T04:49:24.760Z,4.43
2022-08-22T04:51:35.084Z,4.15
2022-08-22T04:54:06.448Z,7.90
2022-08-22T04:56:17.249Z,4.80
2022-08-22T04:58:32.142Z,18.10
2022-08-22T05:00:39.260Z,4.90
2022-08-22T05:02:49.204Z,12.13
2022-08-22T05:05:00.107Z,8.98
2022-08-22T05:07:09.920Z,4.68
2022-08-22T05:09:16.448Z,13.60
2022-08-22T05:11:21.245Z,4.47
2022-08-22T05:13:27.094Z,4.80
2022-08-22T05:15:33.343Z,5.25
2022-08-22T05:17:36.130Z,5.15
2022-08-22T05:19:42.008Z,4.70
2022-08-22T05:21:46.877Z,4.63
2022-08-22T05:23:57.325Z,4.63
2022-08-22T05:26:02.494Z,5.20
2022-08-22T05:28:10.464Z,4.78
2022-08-22T05:30:15.360Z,20.08
2022-08-22T05:32:21.946Z,24.42
2022-08-22T05:34:26.948Z,8.82
2022-08-22T05:36:35.443Z,5.28
2022-08-22T05:38:41.904Z,4.50
2022-08-22T05:40:47.133Z,4.10
2022-08-22T05:42:49.094Z,3.90
2022-08-22T05:44:50.974Z,4.47
2022-08-22T05:47:00.869Z,4.65
2022-08-22T05:49:04.988Z,4.63
2022-08-22T05:51:14.881Z,4.43
2022-08-22T05:53:29.225Z,4.97
2022-08-22T05:55:37.429Z,4.55
2022-08-22T05:57:41.841Z,4.30
2022-08-22T05:59:46.099Z,5.10
2022-08-22T06:02:00.376Z,4.55
2022-08-22T06:04:06.525Z,4.63
2022-08-22T06:06:14.236Z,4.60
2022-08-22T06:10:26.032Z,4.95
2022-08-22T06:12:34.230Z,5.53
2022-08-22T06:14:41.973Z,4.35
2022-08-22T06:16:48.933Z,5.40
2022-08-22T06:18:51.613Z,5.05
2022-08-22T06:20:55.895Z,4.65
2022-08-22T06:23:00.618Z,5.85
2022-08-22T06:25:11.411Z,6.15
2022-08-22T06:27:16.189Z,5.60
2022-08-22T06:29:36.796Z,5.07
2022-08-22T06:31:43.271Z,5.18
2022-08-22T06:34:01.082Z,5.50
2022-08-22T06:36:06.996Z,5.47
2022-08-22T06:38:09.408Z,5.40
2022-08-22T06:40:15.263Z,5.43
2022-08-22T06:42:22.007Z,5.53
2022-08-22T06:44:28.278Z,5.40
2022-08-22T06:46:34.348Z,6.10
2022-08-22T06:48:36.806Z,5.88
2022-08-22T06:50:41.595Z,5.88
2022-08-22T06:52:51.493Z,5.45
2022-08-22T06:54:58.718Z,5.45
2022-08-22T06:57:04.366Z,4.60
2022-08-22T06:59:09.088Z,4.68
2022-08-22T07:01:14.013Z,4.97
2022-08-22T07:03:20.685Z,4.63
2022-08-22T07:05:25.818Z,4.72
2022-08-22T07:07:28.212Z,4.80
2022-08-22T07:09:35.508Z,4.93
2022-08-22T07:11:39.248Z,5.38
2022-08-22T07:13:45.415Z,5.30
2022-08-22T07:15:53.292Z,5.18
2022-08-22T07:17:59.313Z,5.18
2022-08-22T07:20:09.195Z,4.95
2022-08-22T07:22:13.505Z,5.20
2022-08-22T07:24:20.113Z,4.68
2022-08-22T07:26:30.868Z,4.75
2022-08-22T07:28:50.931Z,5.50
2022-08-22T07:31:07.312Z,4.60
2022-08-22T07:33:26.972Z,5.05
2022-08-22T07:35:35.566Z,5.00
2022-08-22T07:37:49.958Z,4.85
2022-08-22T07:39:54.867Z,4.95
2022-08-22T07:42:04.568Z,4.70
2022-08-22T07:44:13.178Z,4.30
2022-08-22T07:46:28.284Z,4.20
2022-08-22T07:48:44.710Z,4.10
2022-08-22T07:51:01.444Z,3.97
2022-08-22T07:53:09.187Z,3.50
2022-08-22T07:55:17.523Z,3.55
2022-08-22T07:57:26.736Z,3.50
2022-08-22T07:59:31.025Z,3.78
2022-08-22T08:01:34.529Z,3.45
2022-08-22T08:03:37.348Z,3.40
2022-08-22T08:05:43.503Z,3.47
2022-08-22T08:07:46.624Z,3.20
2022-08-22T08:09:52.617Z,3.55
2022-08-22T08:11:54.576Z,2.80
2022-08-22T08:14:01.335Z,2.53
2022-08-22T08:16:06.468Z,2.47
2022-08-22T08:18:13.551Z,2.28
2022-08-22T08:20:17.373Z,2.70
2022-08-22T08:22:23.041Z,2.30
2022-08-22T08:24:29.112Z,2.00
2022-08-22T08:26:42.008Z,2.13
2022-08-22T08:28:48.820Z,2.10
2022-08-22T08:30:56.032Z,2.22
2022-08-22T08:33:25.581Z,1.92
2022-08-22T08:35:28.993Z,2.35
2022-08-22T08:37:41.129Z,2.00
2022-08-22T08:39:48.548Z,2.10
2022-08-22T08:44:05.704Z,1.60
2022-08-22T08:46:39.385Z,1.50
2022-08-22T08:49:06.411Z,1.60
2022-08-22T08:51:20.356Z,1.70
2022-08-22T08:53:48.964Z,1.63
2022-08-22T08:55:57.508Z,1.67
2022-08-22T08:58:35.913Z,1.70
2022-08-22T09:00:53.068Z,1.55
2022-08-22T09:03:07.134Z,1.90
2022-08-22T09:05:48.757Z,1.63
2022-08-22T09:08:22.583Z,1.63
2022-08-22T09:11:09.922Z,1.60
2022-08-22T09:13:41.152Z,1.85
2022-08-22T09:16:05.088Z,1.90
2022-08-22T09:18:28.855Z,1.60
2022-08-22T09:21:02.309Z,1.63
2022-08-22T09:23:41.235Z,1.85
2022-08-22T09:25:50.375Z,1.63
2022-08-22T09:28:01.963Z,1.98
2022-08-22T09:30:11.640Z,1.80
2022-08-22T09:32:20.408Z,1.75
2022-08-22T09:34:32.391Z,1.80
2022-08-22T09:36:47.521Z,1.65
2022-08-22T09:38:56.602Z,1.77
2022-08-22T09:41:11.464Z,1.70
2022-08-22T09:43:21.156Z,1.60
2022-08-22T09:45:45.088Z,1.60
2022-08-22T09:47:58.280Z,1.70
2022-08-22T09:50:17.023Z,1.73
2022-08-22T09:52:34.130Z,1.63
2022-08-22T09:54:44.428Z,1.73
2022-08-22T09:57:01.789Z,2.00
2022-08-22T09:59:09.851Z,1.70
2022-08-22T10:01:22.159Z,1.80
2022-08-22T10:03:50.965Z,1.70
2022-08-22T10:06:00.858Z,1.80
2022-08-22T10:08:19.834Z,1.70
2022-08-22T10:10:43.282Z,1.70
2022-08-22T10:12:52.445Z,1.60
2022-08-22T10:15:09.942Z,1.85
2022-08-22T10:17:21.749Z,1.80
2022-08-22T10:19:30.073Z,2.28
2022-08-22T10:21:39.653Z,1.77
2022-08-22T10:23:48.842Z,1.58
2022-08-22T10:25:54.475Z,1.80
2022-08-22T10:28:11.578Z,1.73
2022-08-22T10:30:18.889Z,1.70
2022-08-22T10:32:30.659Z,1.83
2022-08-22T10:34:37.471Z,1.70
2022-08-22T10:36:53.075Z,1.75
2022-08-22T10:39:01.353Z,1.63
2022-08-22T10:41:27.552Z,1.67
2022-08-22T10:43:38.339Z,1.70
2022-08-22T10:45:45.342Z,1.85
2022-08-22T10:48:28.790Z,1.70
2022-08-22T10:50:34.575Z,1.58
2022-08-22T10:52:45.628Z,1.50
2022-08-22T10:54:51.195Z,1.55
2022-08-22T10:57:06.874Z,1.60
2022-08-22T10:59:23.021Z,1.60
2022-08-22T11:01:37.886Z,1.65
2022-08-22T11:03:46.585Z,1.40
2022-08-22T11:05:51.010Z,1.50
2022-08-22T11:08:03.850Z,1.38
2022-08-22T11:10:12.201Z,1.50
2022-08-22T11:12:26.711Z,1.40
2022-08-22T11:15:03.259Z,1.55
2022-08-22T11:17:30.313Z,1.50
2022-08-22T11:19:52.546Z,1.55
2022-08-22T11:22:07.251Z,1.40
2022-08-22T11:24:55.851Z,1.70
2022-08-22T11:27:07.232Z,1.60
2022-08-22T11:29:32.392Z,1.52
2022-08-22T11:31:51.258Z,1.38
2022-08-22T11:34:03.351Z,1.50
2022-08-22T11:36:26.345Z,1.30
2022-08-22T11:38:38.021Z,1.40
2022-08-22T11:40:45.388Z,1.50
2022-08-22T11:42:53.958Z,1.75
2022-08-22T11:44:59.943Z,1.60
2022-08-22T11:47:07.214Z,1.50
2022-08-22T11:49:34.038Z,1.55
2022-08-22T11:51:55.128Z,1.92
2022-08-22T11:54:07.275Z,1.70
2022-08-22T11:56:19.535Z,1.75
2022-08-22T11:58:33.204Z,1.70
2022-08-22T12:00:46.945Z,1.67
2022-08-22T12:03:06.314Z,1.80
2022-08-22T12:05:19.668Z,1.60
2022-08-22T12:07:29.830Z,1.45
2022-08-22T12:09:49.139Z,1.60
2022-08-22T12:12:18.867Z,1.60
2022-08-22T12:14:28.748Z,1.60
2022-08-22T12:16:40.699Z,1.67
2022-08-22T12:18:54.569Z,1.58
2022-08-22T12:21:15.851Z,1.83
2022-08-22T12:23:50.212Z,1.60
2022-08-22T12:26:10.987Z,1.50
2022-08-22T12:28:26.388Z,1.42
2022-08-22T12:30:33.636Z,1.52
2022-08-22T12:33:02.414Z,1.75
2022-08-22T12:35:19.467Z,1.50
2022-08-22T12:37:52.265Z,1.65
2022-08-22T12:40:26.340Z,1.50
2022-08-22T12:42:51.033Z,1.77
2022-08-22T12:45:10.348Z,1.60
2022-08-22T12:47:24.946Z,1.50
2022-08-22T12:49:39.596Z,1.50
2022-08-22T12:51:55.754Z,1.52
2022-08-22T12:54:33.787Z,1.50
2022-08-22T12:56:47.226Z,1.33
2022-08-22T13:01:15.591Z,1.58
2022-08-22T13:03:24.631Z,1.58
2022-08-22T13:05:30.164Z,1.65
2022-08-22T13:07:37.658Z,1.45
2022-08-22T13:09:43.333Z,1.55
2022-08-22T13:11:47.345Z,1.30
2022-08-22T13:13:56.256Z,1.30
2022-08-22T13:16:01.393Z,1.30
2022-08-22T13:18:28.782Z,1.33
2022-08-22T13:20:36.140Z,1.48
2022-08-22T13:22:41.386Z,1.65
2022-08-22T13:24:52.452Z,1.38
2022-08-22T13:27:10.954Z,1.40
2022-08-22T13:29:27.191Z,1.38
2022-08-22T13:31:30.517Z,1.70
2022-08-22T13:33:36.277Z,1.60
2022-08-22T13:35:44.654Z,1.63
2022-08-22T13:37:58.305Z,1.90
2022-08-22T13:40:04.450Z,1.50
2022-08-22T13:42:14.296Z,1.50
2022-08-22T13:44:24.808Z,1.50
2022-08-22T13:46:29.322Z,1.80
2022-08-22T13:48:47.148Z,1.60
2022-08-22T13:53:07.175Z,1.70
2022-08-22T13:55:13.643Z,1.58
2022-08-22T13:57:19.791Z,1.80
2022-08-22T13:59:50.265Z,1.90
2022-08-22T14:02:03.464Z,2.53
2022-08-22T14:04:28.492Z,1.75
2022-08-22T14:06:41.620Z,1.63
2022-08-22T14:08:46.976Z,1.92
2022-08-22T14:10:55.619Z,1.63
2022-08-22T14:13:39.674Z,1.83
2022-08-22T14:15:45.343Z,2.13
2022-08-22T14:17:50.764Z,1.70
2022-08-22T14:19:59.073Z,2.53
2022-08-22T14:22:07.137Z,1.75
2022-08-22T14:24:20.240Z,2.10
2022-08-22T14:26:32.946Z,1.90
2022-08-22T14:28:39.129Z,2.65
2022-08-22T14:30:59.401Z,2.00
2022-08-22T14:33:11.526Z,2.65
2022-08-22T14:35:23.178Z,1.50
2022-08-22T14:37:41.612Z,2.25
2022-08-22T14:39:48.322Z,1.80
2022-08-22T14:41:59.452Z,2.10
2022-08-22T14:44:07.322Z,1.75
2022-08-22T14:46:14.214Z,1.60
2022-08-22T14:48:31.627Z,1.77
2022-08-22T14:50:42.136Z,1.90
2022-08-22T14:52:46.800Z,1.85
2022-08-22T14:54:48.334Z,1.98
2022-08-22T14:56:54.810Z,3.20
2022-08-22T14:58:59.498Z,1.80
2022-08-22T15:01:10.068Z,2.00
2022-08-22T15:03:23.443Z,1.80
2022-08-22T15:05:25.154Z,1.88
2022-08-22T15:07:30.932Z,2.58
2022-08-22T15:09:40.551Z,1.80
2022-08-22T15:11:47.896Z,2.20
2022-08-22T15:13:56.329Z,2.20
2022-08-22T15:16:03.500Z,1.90
2022-08-22T15:18:17.690Z,2.00
2022-08-22T15:20:27.782Z,1.80
2022-08-22T15:22:30.212Z,1.90
2022-08-22T15:24:34.393Z,1.83
2022-08-22T15:26:40.581Z,2.15
2022-08-22T15:28:52.339Z,2.10
2022-08-22T15:31:03.992Z,1.80
2022-08-22T15:33:14.394Z,2.20
2022-08-22T15:35:28.283Z,1.67
2022-08-22T15:37:33.423Z,1.73
2022-08-22T15:39:59.250Z,1.65
2022-08-22T15:42:02.094Z,1.70
2022-08-22T15:44:15.121Z,3.22
2022-08-22T15:46:37.748Z,1.77
2022-08-22T15:48:40.326Z,1.85
2022-08-22T15:50:57.628Z,1.80
2022-08-22T15:53:17.052Z,2.25
2022-08-22T15:55:24.162Z,1.60
2022-08-22T15:57:29.280Z,2.00
2022-08-22T15:59:48.014Z,2.33
2022-08-22T16:01:58.729Z,2.33
2022-08-22T16:04:06.470Z,1.95
2022-08-22T16:06:11.153Z,2.03
2022-08-22T16:08:15.721Z,2.88
2022-08-22T16:10:34.570Z,2.05
2022-08-22T16:12:39.430Z,1.98
2022-08-22T16:14:48.214Z,1.42
2022-08-22T16:17:01.528Z,1.58
2022-08-22T16:19:14.550Z,1.52
2022-08-22T16:21:17.119Z,1.65
2022-08-22T16:23:18.773Z,1.40
2022-08-22T16:26:07.236Z,3.20
2022-08-22T16:28:36.103Z,1.77
2022-08-22T16:30:43.131Z,1.45
2022-08-22T16:32:54.194Z,1.83
2022-08-22T16:34:55.781Z,2.67
2022-08-22T16:37:30.733Z,1.63
2022-08-22T16:39:38.587Z,2.03
2022-08-22T16:41:43.351Z,1.90
2022-08-22T16:44:20.035Z,1.52
2022-08-22T16:46:34.641Z,1.70
2022-08-22T16:48:38.492Z,1.67
2022-08-22T16:50:40.147Z,3.00
2022-08-22T16:52:54.630Z,1.80
2022-08-22T16:54:57.798Z,1.90
2022-08-22T16:57:14.534Z,1.73
2022-08-22T16:59:45.423Z,2.65
2022-08-22T17:02:10.304Z,1.70
2022-08-22T17:04:21.723Z,1.70
2022-08-22T17:06:37.738Z,2.08
2022-08-22T17:08:53.106Z,1.70
2022-08-22T17:11:05.100Z,2.03
2022-08-22T17:13:22.271Z,1.60
2022-08-22T17:15:35.315Z,1.60
2022-08-22T17:17:55.513Z,2.60
2022-08-22T17:22:20.230Z,1.83
2022-08-22T17:24:34.042Z,1.90
2022-08-22T17:26:50.224Z,1.60
2022-08-22T17:29:06.787Z,1.58
2022-08-22T17:31:16.819Z,1.80
2022-08-22T17:33:43.714Z,1.60
2022-08-22T17:35:59.191Z,2.00
2022-08-22T17:38:07.270Z,2.28
2022-08-22T17:40:26.162Z,1.70
2022-08-22T17:42:46.566Z,1.90
2022-08-22T17:44:58.632Z,2.40
2022-08-22T17:47:08.210Z,1.95
2022-08-22T17:49:18.234Z,2.00
2022-08-22T17:51:28.603Z,2.08
2022-08-22T17:53:39.154Z,2.47
2022-08-22T17:55:57.301Z,2.10
2022-08-22T17:58:04.639Z,2.92
2022-08-22T18:00:15.126Z,3.13
2022-08-22T18:02:23.226Z,2.42
2022-08-22T18:04:32.386Z,2.13
2022-08-22T18:06:43.886Z,2.20
2022-08-22T18:11:20.156Z,2.17
2022-08-22T18:13:37.471Z,3.15
2022-08-22T18:15:46.955Z,2.50
2022-08-22T18:17:55.148Z,2.50
2022-08-22T18:20:03.469Z,1.85
2022-08-22T18:22:10.123Z,3.00
2022-08-22T18:24:19.344Z,1.90
2022-08-22T18:26:28.058Z,2.72
2022-08-22T18:28:35.365Z,1.80
2022-08-22T18:30:51.770Z,1.70
2022-08-22T18:32:59.467Z,2.40
2022-08-22T18:35:09.348Z,2.15
2022-08-22T18:37:19.002Z,1.75
2022-08-22T18:39:29.015Z,1.80
2022-08-22T18:41:37.959Z,1.92
2022-08-22T18:43:43.035Z,1.95
2022-08-22T18:46:25.180Z,1.70
2022-08-22T18:48:31.914Z,2.20
2022-08-22T18:50:35.618Z,1.77
2022-08-22T18:52:39.104Z,1.90
2022-08-22T18:54:49.556Z,1.73
2022-08-22T18:56:52.967Z,1.80
2022-08-22T18:59:10.445Z,2.00
2022-08-22T19:01:41.321Z,2.40
2022-08-22T19:04:12.681Z,2.47
2022-08-22T19:06:46.885Z,1.70
2022-08-22T19:09:07.276Z,1.83
2022-08-22T19:11:25.891Z,2.00
2022-08-22T19:13:57.171Z,2.15
2022-08-22T19:16:14.152Z,2.00
2022-08-22T19:18:28.018Z,1.80
2022-08-22T19:20:33.430Z,2.75
2022-08-22T19:22:36.256Z,4.75
2022-08-22T19:25:04.456Z,1.90
2022-08-22T19:27:31.247Z,2.53
2022-08-22T19:29:55.042Z,2.20
2022-08-22T19:31:59.113Z,2.03
2022-08-22T19:34:15.565Z,3.35
2022-08-22T19:36:32.858Z,2.33
2022-08-22T19:38:52.905Z,2.55
2022-08-22T19:40:58.155Z,2.63
2022-08-22T19:43:01.594Z,7.28
2022-08-22T19:45:17.153Z,1.95
2022-08-22T19:47:27.011Z,2.25
2022-08-22T19:49:31.670Z,2.25
2022-08-22T19:51:35.010Z,2.47
2022-08-22T19:53:44.222Z,5.90
2022-08-22T19:55:58.264Z,2.20
2022-08-22T19:58:07.657Z,2.30
2022-08-22T20:00:13.621Z,3.58
2022-08-22T20:02:28.457Z,5.05
2022-08-22T20:04:48.684Z,9.70
2022-08-22T20:09:12.094Z,2.45
2022-08-22T20:11:39.520Z,2.22
2022-08-22T20:13:41.398Z,4.30
2022-08-22T20:16:03.582Z,2.83
2022-08-22T20:18:46.508Z,10.80
2022-08-22T20:20:47.095Z,6.68
2022-08-22T20:22:55.226Z,3.25
2022-08-22T20:25:01.419Z,5.90
2022-08-22T20:27:14.938Z,3.08
2022-08-22T20:29:18.689Z,4.90
2022-08-22T20:31:25.065Z,2.13
2022-08-22T20:33:31.050Z,1.98
2022-08-22T20:35:38.203Z,2.90
2022-08-22T20:38:07.660Z,2.40
2022-08-22T20:40:53.497Z,1.75
2022-08-22T20:42:40.359Z,2.38
2022-08-22T20:44:53.241Z,2.40
2022-08-22T20:47:00.173Z,2.20
2022-08-22T20:49:02.652Z,1.88
2022-08-22T20:51:05.601Z,2.60
2022-08-22T20:53:14.344Z,2.22
2022-08-22T20:55:21.627Z,2.80
2022-08-22T20:57:23.234Z,3.10
2022-08-22T20:59:29.374Z,2.47
2022-08-22T21:01:31.207Z,2.08
2022-08-22T21:03:39.697Z,4.95
2022-08-22T21:05:43.723Z,2.38
2022-08-22T21:07:48.045Z,2.67
2022-08-22T21:09:58.875Z,3.85
2022-08-22T21:12:02.659Z,2.38
2022-08-22T21:14:18.062Z,1.90
2022-08-22T21:16:22.447Z,2.20
2022-08-22T21:18:28.356Z,2.15
2022-08-22T21:20:33.113Z,2.40
2022-08-22T21:22:34.669Z,3.05
2022-08-22T21:24:36.241Z,2.70
2022-08-22T21:26:40.696Z,2.60
2022-08-22T21:29:01.603Z,3.00
2022-08-22T21:31:12.515Z,3.28
2022-08-22T21:33:23.965Z,4.70
2022-08-22T21:35:29.518Z,3.63
2022-08-22T21:37:37.587Z,2.35
2022-08-22T21:39:45.810Z,2.63
2022-08-22T21:41:50.228Z,4.13
2022-08-22T21:43:54.114Z,2.20
2022-08-22T21:45:55.836Z,2.40
2022-08-22T21:47:58.352Z,2.50
2022-08-22T21:50:04.005Z,2.60
2022-08-22T21:52:05.514Z,3.47
2022-08-22T21:54:33.449Z,2.10
2022-08-22T21:56:34.960Z,3.08
2022-08-22T21:58:37.502Z,2.28
2022-08-22T22:00:48.900Z,2.40
2022-08-22T22:02:58.427Z,2.50
2022-08-22T22:05:01.246Z,2.33
2022-08-22T22:07:03.609Z,2.28
2022-08-22T22:09:05.526Z,2.88
2022-08-22T22:11:11.109Z,2.58
2022-08-22T22:13:13.613Z,3.38
2022-08-22T22:15:19.285Z,2.60
2022-08-22T22:17:22.166Z,3.17
2022-08-22T22:19:23.800Z,3.42
2022-08-22T22:21:25.405Z,2.88
2022-08-22T22:23:28.305Z,2.92
2022-08-22T22:25:40.415Z,3.15
2022-08-22T22:27:44.367Z,3.33
2022-08-22T22:29:45.966Z,2.97
2022-08-22T22:31:47.533Z,2.90
2022-08-22T22:33:50.547Z,2.85
2022-08-22T22:35:54.442Z,3.50
2022-08-22T22:37:56.213Z,2.83
2022-08-22T22:39:58.052Z,3.40
2022-08-22T22:41:59.709Z,3.13
2022-08-22T22:44:01.695Z,3.50
2022-08-22T22:46:03.307Z,2.83
2022-08-22T22:48:06.746Z,3.30
2022-08-22T22:50:09.977Z,2.97
2022-08-22T22:52:11.756Z,3.47
2022-08-22T22:54:13.369Z,3.30
2022-08-22T22:56:21.496Z,3.13
2022-08-22T22:58:23.413Z,3.10
2022-08-22T23:00:30.685Z,3.10
2022-08-22T23:02:32.891Z,2.90
2022-08-22T23:04:37.583Z,2.97
2022-08-22T23:06:40.505Z,3.10
2022-08-22T23:08:42.515Z,3.22
2022-08-22T23:10:44.776Z,3.22
2022-08-22T23:12:46.291Z,3.40
2022-08-22T23:14:47.879Z,2.90
2022-08-22T23:16:49.468Z,3.08
2022-08-22T23:18:50.971Z,3.05
2022-08-22T23:20:52.658Z,3.00
2022-08-22T23:22:55.535Z,2.83
2022-08-22T23:24:57.122Z,3.17
2022-08-22T23:26:59.762Z,2.95
2022-08-22T23:29:01.356Z,2.83
2022-08-22T23:31:11.212Z,2.53
2022-08-22T23:33:12.712Z,2.80
2022-08-22T23:35:14.210Z,3.50
2022-08-22T23:37:18.250Z,3.33
2022-08-22T23:39:22.496Z,2.55
2022-08-22T23:41:24.244Z,2.90
2022-08-22T23:43:25.738Z,3.38
2022-08-22T23:45:27.358Z,2.53
2022-08-22T23:47:28.968Z,2.53
2022-08-22T23:49:31.039Z,2.60
2022-08-22T23:51:32.927Z,2.50
2022-08-22T23:53:34.672Z,2.58
2022-08-22T23:55:37.522Z,2.63
2022-08-22T23:57:39.093Z,2.60
2022-08-22T23:59:46.305Z,2.97
